PST,Max TemperatureF,Mean TemperatureF,Min TemperatureF,Max Dew PointF,MeanDew PointF,Min DewpointF,Max Humidity, Mean Humidity, Min Humidity, Max Sea Level PressureIn, Mean Sea Level PressureIn, Min Sea Level PressureIn, Max VisibilityMiles, Mean VisibilityMiles, Min VisibilityMiles, Max Wind SpeedMPH, Mean Wind SpeedMPH, Max Gust SpeedMPH,PrecipitationIn, CloudCover, Events, WindDirDegrees
2013-2-1,48,39,30,45,40,30,100,96,77,30.40,30.36,30.31,10,7,1,8,2,,0.00,6,,308
2013-2-2,42,35,28,40,36,28,100,98,89,30.37,30.31,30.24,10,5,1,14,1,20,0.00,8,,52
2013-2-3,46,42,37,45,42,37,100,94,86,30.30,30.25,30.19,10,10,4,13,5,,0.01,8,,220
2013-2-4,48,44,39,42,41,39,97,87,71,30.20,30.06,29.90,10,10,10,8,6,,0.00,8,Rain,232
2013-2-5,48,45,42,45,42,39,100,90,82,29.94,29.86,29.82,10,10,9,18,6,28,0.47,7,Rain,199
2013-2-6,46,44,41,43,40,39,100,90,82,30.03,29.95,29.77,10,10,10,16,7,22,0.20,8,Rain,171
2013-2-7,48,38,28,39,35,27,100,88,58,30.19,29.99,29.79,10,10,10,22,6,29,0.04,4,Rain,195
2013-2-8,44,34,24,37,30,24,100,91,65,30.31,30.26,30.18,10,9,4,7,0,,0.00,3,,248
2013-2-9,46,36,26,39,34,27,100,87,66,30.33,30.27,30.24,10,8,2,6,1,,0.00,5,,65
2013-2-10,44,40,37,39,38,36,100,91,73,30.37,30.34,30.31,10,10,10,5,1,,0.00,8,,120
2013-2-11,46,42,37,43,40,37,100,95,86,30.35,30.33,30.30,10,10,4,10,1,,0.02,8,Rain,226
2013-2-12,48,45,42,46,45,42,100,96,87,30.40,30.35,30.31,10,10,8,17,9,21,0.08,8,Rain,221
2013-2-13,48,42,37,46,41,37,100,91,74,30.50,30.40,30.31,10,10,4,17,10,24,0.02,5,Rain,238
2013-2-14,46,42,39,45,42,39,100,98,93,30.55,30.52,30.49,10,9,5,6,2,,0.03,8,,130
2013-2-15,55,44,32,45,42,32,100,92,64,30.54,30.37,30.17,10,9,2,8,4,,0.00,5,,19
2013-2-16,48,39,30,43,38,30,100,90,68,30.19,30.17,30.16,10,9,2,22,7,30,0.00,5,Rain,233
2013-2-17,46,38,30,37,34,30,100,86,66,30.23,30.18,30.09,10,10,3,15,8,23,0.00,3,,226
2013-2-18,44,37,30,39,36,28,100,94,76,30.09,29.91,29.75,10,10,4,5,1,,0.20,8,Rain,244
2013-2-19,48,39,28,40,36,29,100,90,62,30.00,29.82,29.72,10,10,4,9,4,,0.04,7,Rain,7
2013-2-20,43,36,30,40,36,28,100,95,87,30.04,30.01,29.97,10,9,1,9,1,16,0.25,8,Rain,225
2013-2-21,43,40,37,42,38,36,100,94,87,30.08,30.04,30.00,10,10,9,15,6,17,0.33,7,Rain,218
2013-2-22,48,42,35,45,39,33,96,91,82,30.06,29.86,29.69,10,10,10,28,11,38,1.19,7,Rain,213
2013-2-23,48,42,36,37,35,30,97,81,56,30.37,30.14,29.92,10,10,10,23,13,31,0.01,3,Rain,235
2013-2-24,44,40,37,43,39,35,100,95,89,30.38,30.22,29.94,10,10,10,7,2,,0.18,8,Rain,265
2013-2-25,48,42,36,39,36,29,97,85,46,30.29,30.06,29.89,10,10,10,25,13,37,0.32,5,Rain,232
2013-2-26,46,39,32,39,36,32,100,91,68,30.34,30.26,30.19,10,10,10,10,4,,0.10,6,Rain,222
2013-2-27,45,38,32,43,38,32,100,95,85,30.29,30.25,30.18,10,8,1,6,2,,0.10,8,Rain,277
2013-2-28,50,46,41,49,44,39,100,95,87,30.31,30.22,30.18,10,10,9,13,3,20,1.05,8,Rain,318